Accueil
METAR-TAF:

METAR-TAF

Aéroports :

Aéroport international de Cambridge

Cambridge, Angleterre

latitude: 52-12N, longitude: 000-11E, altitude: 15 m

Observation

Le bulletin a été fait il y a 5 heures et 33 minutes, à 16:50 UTC
Vent 10 kt de ouest/nord-ouest
Température 14°C
Humidité 67%
Pression 1028 hPa
Visibilité 10 km ou plus
pas de nuages en-dessous de 1500 mètres et pas de cumulonimbus.

METAR: EGSC 231650Z 29010KT CAVOK 14/08 Q1028

Heure: 23:23 (22:23 UTC)

Prévision

Le bulletin a été fait il y a 8 heures et 24 minutes, à 13:59 UTC
Prévision valable du 23 à 15 UTC au 23 à 19 UTC
Vent 13 kt de ouest/nord-ouest
Visibilité 10 km ou plus
Quelques nuages à une hauteur de 1800 ft
Temporairement
du 23 à 15 UTC au 23 à 19 UTC
Vent 16 kt de nord-ouest avec des rafales jusqu'à 26 kt

TAF: EGSC 231359Z 2315/2319 29013KT 9999 FEW018 TEMPO 2315/2319 31016G26KT

Observations et prévisions météorologiques de plus de 4000 aéroports (messages METAR et TAF).

Les stations disponibles sont représentées par des disques jaunes et rouges sur la carte.

Passer la souris dessus pour voir le nom de la station.

Cliquer dessus pour voir les observations et prévisions météorologiques.

Pour changer de carte: cliquez sur les boutons verts avec une croix noire pour zoomer, sur le bouton vert avec un tiret pour effectuer un zoom arrière, ou sur les flèches vertes pour les cartes adjacentes.


METAR-TAF: